aviador You're here:

SUMU Decoded Metar

MONTEVIDEO in URUGUAY
Report Time2017-08-22 11:00:00
UTC Time2017-08-22 11:14:11
Flight Rules vfr VFR
Wind030° at 10 kt
W.Decomp.*RWY 06: 9.3 kt HW 3.6 kt LCW
RWY 01: 8.7 kt HW 4.8 kt RCW
W.Rank030° ranks 6
Current wind is above 030° avg. (7.3)
Visibility9999 m
Phenomena:N/A
Clouds:N/A
Expected CloudBase > 2,000 ft AGL from Temp-Dew spread
CeilingNone
Temp07°C (ISA -8)
Dew Point02°C (71% RH)
AAT1.7°C
QNH1021 hPa
Density Alt-1,007 ft
Elevation105 ft
Report Wrong Elevation
Raw Report
METAR SUMU 221100Z 03010KT CAVOK 07/02 Q1021 NOSIG=

Extra information for SUMU:More info

Metar Taf Metar & Taf Last 4 Metars F.Rules Stats Wind Profile Meteogram Temp Stats Airport Information Weather charts Add Link Nearby VenuesMetar ALERT Operation Metar Decoded Social comments